Wednesday, February 20, 2019, 2:38 PM EST
Back to Local

KAGC, Pittsburgh Allegheny Cty.

Location: West Mifflin, PA, United States Lat: 40.35
Local Time: 2:38 PM EST (19:38 GMT) Lon: -79.917
Time Zone: US/Eastern Elev: 1253 ft

Show me the last for .
Show Decoded

2019-02-20 14:07 METAR KAGC 201907Z 13010KT 2SM -RA BR OVC004 01/00 A3003 RMK AO2 CIG 002V010
                 P0002 T00060000 =
2019-02-20 13:53 METAR KAGC 201853Z 14011KT 2SM -RA BR OVC006 01/00 A3003 RMK AO2
                 RAE14B16UPB22E24SNB14E16 CIG 002V010 SLP189 P0007 T00060000 =
2019-02-20 13:15 METAR KAGC 201815Z 13014G22KT 2SM R28/6000VP6000FT -SN BR OVC006 01/M01 A3006
                 RMK AO2 RAE14SNB14 CIG 004V010 P0002 T00061006 =
2019-02-20 12:53 METAR KAGC 201753Z 13015KT 4SM -RA BR OVC008 01/M01 A3007 RMK AO2 CIG 005V012
                 SLP202 P0003 6//// I6000 T00061006 10006 21033 58031 $ =
2019-02-20 11:53 METAR KAGC 201653Z 14014G22KT 4SM -RA BR BKN009 BKN014 OVC029 00/M01 A3012 RMK
                 AO2 RAB43UPB45E49 SLP219 T00001006 PNO $ =
2019-02-20 10:53 METAR KAGC 201553Z 14013G25KT 6SM BR BKN009 OVC047 00/M01 A3014 RMK AO2
                 UPE1457SNB1457E50 SLP225 T00001011 PNO $ =
2019-02-20 10:39 METAR KAGC 201539Z 13016G25KT 5SM -SN BR FEW006 OVC010 00/M01 A3014 RMK AO2
                 UPE1457SNB1457 T00001011 PNO $ =
2019-02-20 09:53 METAR KAGC 201453Z 11010KT 6SM UP BR BKN006 OVC010 M01/M02 A3017 RMK AO2
                 UPB45FZRAE43SNB43E45 CIG 004V008 SLP235 6//// I1000 I3000 T10111022 58018 PNO $
                 =
2019-02-20 09:49 METAR KAGC 201449Z 11012KT 6SM UP BR BKN006 OVC010 M02/M02 A3017 RMK AO2
                 UPB45FZRAE43SNB43E45 CIG 004V008 I1000 PNO $ =
2019-02-20 09:33 METAR KAGC 201433Z 11012KT 4SM FZRA OVC005 M02/M02 A3019 RMK AO2 CIG 003V010
                 I1000 T10171022 PNO $ =
2019-02-20 09:25 METAR KAGC 201425Z 12010KT 2 1/2SM FZRA OVC005 M02/M02 A3019 RMK AO2 CIG 003V008
                 I1000 T10171022 PNO $ =
2019-02-20 09:17 METAR KAGC 201417Z 11011KT 1 3/4SM FZRA OVC006 M02/M02 A3017 RMK AO2 CIG 003V008
                 PRESFR I1000 T10171022 PNO $ =
2019-02-20 09:01 METAR KAGC 201401Z 10011KT 2SM FZRA OVC005 M02/M02 A3022 RMK AO2 I1000 T10171022
                 PNO $ =
2019-02-20 08:53 METAR KAGC 201353Z 10009KT 1 3/4SM FZRA OVC005 M02/M02 A3023 RMK AO2
                 FZRAB44SNE44 SLP256 I1000 T10171022 PNO $ =
2019-02-20 08:50 METAR KAGC 201350Z 09011KT 1 3/4SM FZRA OVC005 M02/M02 A3022 RMK AO2
                 FZRAB44SNE44 I1000 PNO $ =
2019-02-20 08:39 METAR KAGC 201339Z 09011KT 3/4SM R28/P6000FT -SN BR OVC005 M02/M03 A3022 RMK AO2
                 CIG 003V008 P0000 T10221028 =
2019-02-20 08:03 METAR KAGC 201303Z 09009KT 3/4SM R28/3000V5000FT -SN BR SCT008 OVC014 M02/M03
                 A3024 RMK AO2 P0000 T10221033 =
2019-02-20 07:57 METAR KAGC 201257Z 09010KT 1/4SM R28/3000V5000FT SN FZFG BKN008 OVC014 M02/M03
                 A3023 RMK AO2 P0000 T10221033 =
2019-02-20 07:53 METAR KAGC 201253Z 09010KT 1/2SM R28/3500V5000FT SN FZFG SCT006 BKN010 OVC014
                 M02/M03 A3023 RMK AO2 SLP259 P0000 T10221033 =
2019-02-20 07:41 METAR KAGC 201241Z 09008KT 3/4SM R28/4500V5000FT -SN BR SCT006 OVC014 M03/M03
                 A3024 RMK AO2 P0000 T10281033 =
2019-02-20 06:53 METAR KAGC 201153Z 09008KT 1 1/4SM -SN BR FEW005 OVC014 M03/M04 A3024 RMK AO2
                 SLP261 P0000 60000 T10331039 11017 21033 56013 =
2019-02-20 06:49 METAR KAGC 201149Z 09008KT 1 1/4SM -SN BR FEW005 OVC014 M03/M04 A3024 RMK AO2
                 PRESFR P0000 =
2019-02-20 06:41 METAR KAGC 201141Z 08007KT 1 1/4SM -SN BR OVC014 M03/M04 A3026 RMK AO2 P0000
                 T10331039 =
2019-02-20 06:10 METAR KAGC 201110Z 07004KT 3/4SM R28/5000V6000FT -SN BR VV014 M03/M06 A3027 RMK
                 AO2 P0000 T10331056 =
2019-02-20 06:04 METAR KAGC 201104Z 06004KT 1SM R28/5500VP6000FT -SN VV017 M02/M06 A3026 RMK AO2
                 P0000 T10221056 =
2019-02-20 05:53 METAR KAGC 201053Z 10006KT 3SM -SN OVC024 M02/M07 A3027 RMK AO2 SNB42 SLP271
                 P0000 T10171072 =
2019-02-20 05:48 METAR KAGC 201048Z 11006KT 4SM -SN OVC024 M02/M08 A3028 RMK AO2 SNB42 PRESFR
                 P0000 =
2019-02-20 04:53 METAR KAGC 200953Z 11004KT 10SM BKN060 OVC070 M02/M08 A3030 RMK AO2 SLP280
                 T10171083 =
2019-02-20 03:53 METAR KAGC 200853Z 10004KT 10SM OVC085 M02/M09 A3034 RMK AO2 SLP295 T10221089
                 58020 =
2019-02-20 02:53 METAR KAGC 200753Z 05003KT 10SM BKN110 M03/M09 A3037 RMK AO2 SLP305 T10281094 =
2019-02-20 01:53 METAR KAGC 200653Z AUTO 05003KT 10SM CLR M03/M10 A3040 RMK AO2 SLP315 T10281100
                 =
2019-02-20 00:53 METAR KAGC 200553Z AUTO 08005KT 10SM CLR M03/M09 A3040 RMK AO2 SLP318 T10331094
                 11022 21033 56021 =
2019-02-19 23:53 METAR KAGC 200453Z 04004KT 10SM CLR M03/M10 A3041 RMK AO2 SLP322 T10331100
                 410061100 =
2019-02-19 22:53 METAR KAGC 200353Z 07003KT 10SM CLR M03/M11 A3045 RMK AO2 SLP334 T10331106 =
2019-02-19 21:53 METAR KAGC 200253Z 10006KT 10SM CLR M03/M10 A3047 RMK AO2 SLP341 T10331100 58023
                 =
2019-02-19 20:53 METAR KAGC 200153Z 05004KT 10SM CLR M03/M11 A3049 RMK AO2 SLP350 T10281106 =
2019-02-19 19:53 METAR KAGC 200053Z 05003KT 10SM CLR M03/M11 A3053 RMK AO2 SLP362 T10281111 =
2019-02-19 18:53 METAR KAGC 192353Z 07003KT 10SM CLR M02/M11 A3054 RMK AO2 SLP367 T10221111 11006
                 21033 51001 =
2019-02-19 17:53 METAR KAGC 192253Z 00000KT 10SM CLR M02/M12 A3054 RMK AO2 SLP367 T10221117 =
2019-02-19 16:53 METAR KAGC 192153Z 00000KT 10SM CLR M02/M11 A3054 RMK AO2 SLP367 T10171111 =
2019-02-19 15:53 METAR KAGC 192053Z 00000KT 10SM CLR M02/M11 A3054 RMK AO2 SLP366 T10171106 56019
                 =
2019-02-19 14:53 METAR KAGC 191953Z 00000KT 10SM CLR M01/M11 A3054 RMK AO2 SLP366 T10111106 =

Support USWX by starting your Amazon purchase here.